sensor_id;sensor_type;location;lat;lon;timestamp;pressure;altitude;pressure_sealevel;temperature;humidity
76074;BME280;64776;42.636;24.358;2023-09-19T00:00:28;90703.22;;;9.60;89.04
76074;BME280;64776;42.636;24.358;2023-09-19T00:03:29;90702.34;;;9.63;88.91
76074;BME280;64776;42.636;24.358;2023-09-19T00:06:30;90700.16;;;9.53;90.11
76074;BME280;64776;42.636;24.358;2023-09-19T00:09:30;90698.31;;;9.35;90.42
76074;BME280;64776;42.636;24.358;2023-09-19T00:12:32;90697.25;;;9.42;89.85
76074;BME280;64776;42.636;24.358;2023-09-19T00:15:37;90690.44;;;9.41;90.02
76074;BME280;64776;42.636;24.358;2023-09-19T00:18:38;90689.13;;;9.36;90.22
76074;BME280;64776;42.636;24.358;2023-09-19T00:21:39;90689.41;;;9.47;90.20
76074;BME280;64776;42.636;24.358;2023-09-19T00:24:40;90688.25;;;9.39;89.86
76074;BME280;64776;42.636;24.358;2023-09-19T00:27:42;90684.38;;;9.40;89.20
76074;BME280;64776;42.636;24.358;2023-09-19T00:30:43;90678.66;;;9.33;89.23
76074;BME280;64776;42.636;24.358;2023-09-19T00:33:44;90678.25;;;9.25;89.08
76074;BME280;64776;42.636;24.358;2023-09-19T00:36:44;90677.66;;;9.21;89.81
76074;BME280;64776;42.636;24.358;2023-09-19T00:39:45;90673.22;;;9.18;89.03
76074;BME280;64776;42.636;24.358;2023-09-19T00:42:48;90670.84;;;9.20;88.89
76074;BME280;64776;42.636;24.358;2023-09-19T00:45:51;90679.72;;;9.26;89.54
76074;BME280;64776;42.636;24.358;2023-09-19T00:48:52;90676.59;;;9.28;89.02
76074;BME280;64776;42.636;24.358;2023-09-19T00:51:53;90676.44;;;9.31;89.89
76074;BME280;64776;42.636;24.358;2023-09-19T00:54:54;90678.81;;;9.29;89.52
76074;BME280;64776;42.636;24.358;2023-09-19T00:57:56;90674.66;;;9.28;89.66
76074;BME280;64776;42.636;24.358;2023-09-19T01:00:58;90676.88;;;9.30;89.27
76074;BME280;64776;42.636;24.358;2023-09-19T01:03:58;90659.91;;;9.27;89.05
76074;BME280;64776;42.636;24.358;2023-09-19T01:06:59;90661.81;;;9.27;89.11
76074;BME280;64776;42.636;24.358;2023-09-19T01:10:01;90659.59;;;9.25;89.45
76074;BME280;64776;42.636;24.358;2023-09-19T01:13:11;90662.28;;;9.25;89.92
76074;BME280;64776;42.636;24.358;2023-09-19T01:16:35;90665.84;;;9.13;89.67
76074;BME280;64776;42.636;24.358;2023-09-19T01:20:06;90664.84;;;9.11;90.32
76074;BME280;64776;42.636;24.358;2023-09-19T01:23:20;90668.78;;;9.15;90.58
76074;BME280;64776;42.636;24.358;2023-09-19T01:26:33;90665.59;;;9.02;90.04
76074;BME280;64776;42.636;24.358;2023-09-19T01:29:46;90667.63;;;9.07;90.80
76074;BME280;64776;42.636;24.358;2023-09-19T01:32:51;90667.34;;;9.14;90.88
76074;BME280;64776;42.636;24.358;2023-09-19T01:35:52;90667.34;;;9.14;91.06
76074;BME280;64776;42.636;24.358;2023-09-19T01:38:54;90665.69;;;9.17;91.17
76074;BME280;64776;42.636;24.358;2023-09-19T01:42:01;90655.47;;;9.15;91.42
76074;BME280;64776;42.636;24.358;2023-09-19T01:45:11;90664.66;;;9.23;91.69
76074;BME280;64776;42.636;24.358;2023-09-19T01:48:20;90657.84;;;9.22;91.74
76074;BME280;64776;42.636;24.358;2023-09-19T01:51:33;90647.94;;;9.23;92.53
76074;BME280;64776;42.636;24.358;2023-09-19T01:54:40;90645.41;;;9.19;92.55
76074;BME280;64776;42.636;24.358;2023-09-19T01:57:48;90639.47;;;9.24;92.83
76074;BME280;64776;42.636;24.358;2023-09-19T02:00:50;90641.13;;;9.22;92.73
76074;BME280;64776;42.636;24.358;2023-09-19T02:03:53;90648.97;;;9.25;93.42
76074;BME280;64776;42.636;24.358;2023-09-19T02:06:54;90642.59;;;9.23;92.89
76074;BME280;64776;42.636;24.358;2023-09-19T02:09:55;90644.53;;;9.22;93.30
76074;BME280;64776;42.636;24.358;2023-09-19T02:12:56;90653.41;;;9.19;92.96
76074;BME280;64776;42.636;24.358;2023-09-19T02:15:56;90656.34;;;9.21;93.03
76074;BME280;64776;42.636;24.358;2023-09-19T02:18:59;90647.00;;;9.26;92.44
76074;BME280;64776;42.636;24.358;2023-09-19T02:21:59;90641.84;;;9.22;92.65
76074;BME280;64776;42.636;24.358;2023-09-19T02:25:00;90644.53;;;9.22;92.11
76074;BME280;64776;42.636;24.358;2023-09-19T02:28:01;90642.88;;;9.25;92.58
76074;BME280;64776;42.636;24.358;2023-09-19T02:31:02;90633.56;;;9.29;92.02
76074;BME280;64776;42.636;24.358;2023-09-19T02:34:04;90642.13;;;9.33;92.44
76074;BME280;64776;42.636;24.358;2023-09-19T02:37:05;90647.28;;;9.37;92.63
76074;BME280;64776;42.636;24.358;2023-09-19T02:40:07;90643.88;;;9.36;91.17
76074;BME280;64776;42.636;24.358;2023-09-19T02:43:08;90644.78;;;9.33;92.42
76074;BME280;64776;42.636;24.358;2023-09-19T02:46:09;90636.63;;;9.37;91.54
76074;BME280;64776;42.636;24.358;2023-09-19T02:49:11;90640.75;;;9.38;92.03
76074;BME280;64776;42.636;24.358;2023-09-19T02:52:12;90635.88;;;9.36;92.41
76074;BME280;64776;42.636;24.358;2023-09-19T02:55:14;90634.41;;;9.35;93.11
76074;BME280;64776;42.636;24.358;2023-09-19T02:58:15;90634.16;;;9.24;92.19
76074;BME280;64776;42.636;24.358;2023-09-19T03:01:16;90639.28;;;8.95;93.32
76074;BME280;64776;42.636;24.358;2023-09-19T03:04:18;90628.34;;;9.02;93.10
76074;BME280;64776;42.636;24.358;2023-09-19T03:07:19;90622.38;;;9.07;93.01
76074;BME280;64776;42.636;24.358;2023-09-19T03:10:21;90619.00;;;9.07;93.06
76074;BME280;64776;42.636;24.358;2023-09-19T03:13:22;90613.84;;;9.03;93.40
76074;BME280;64776;42.636;24.358;2023-09-19T03:16:22;90600.25;;;9.01;93.45
76074;BME280;64776;42.636;24.358;2023-09-19T03:19:25;90603.53;;;8.87;93.68
76074;BME280;64776;42.636;24.358;2023-09-19T03:22:26;90600.72;;;8.90;93.66
76074;BME280;64776;42.636;24.358;2023-09-19T03:25:27;90596.72;;;8.95;92.69
76074;BME280;64776;42.636;24.358;2023-09-19T03:28:28;90599.72;;;8.79;94.58
76074;BME280;64776;42.636;24.358;2023-09-19T03:31:29;90602.84;;;8.77;93.76
76074;BME280;64776;42.636;24.358;2023-09-19T03:34:31;90602.41;;;8.79;94.49
76074;BME280;64776;42.636;24.358;2023-09-19T03:37:32;90605.34;;;8.81;93.46
76074;BME280;64776;42.636;24.358;2023-09-19T03:40:33;90599.34;;;8.62;93.50
76074;BME280;64776;42.636;24.358;2023-09-19T03:43:34;90612.47;;;8.66;94.48
76074;BME280;64776;42.636;24.358;2023-09-19T03:46:35;90618.38;;;8.70;94.03
76074;BME280;64776;42.636;24.358;2023-09-19T03:49:37;90614.25;;;8.60;94.82
76074;BME280;64776;42.636;24.358;2023-09-19T03:52:38;90614.38;;;8.74;94.46
76074;BME280;64776;42.636;24.358;2023-09-19T03:55:38;90605.94;;;8.76;94.64
76074;BME280;64776;42.636;24.358;2023-09-19T03:58:39;90608.94;;;8.69;94.17
76074;BME280;64776;42.636;24.358;2023-09-19T04:01:40;90617.53;;;8.37;95.13
76074;BME280;64776;42.636;24.358;2023-09-19T04:04:42;90614.25;;;8.60;94.94
76074;BME280;64776;42.636;24.358;2023-09-19T04:07:43;90623.56;;;8.73;94.27
76074;BME280;64776;42.636;24.358;2023-09-19T04:10:44;90609.22;;;8.71;94.12
76074;BME280;64776;42.636;24.358;2023-09-19T04:13:45;90621.59;;;8.83;95.24
76074;BME280;64776;42.636;24.358;2023-09-19T04:16:46;90616.06;;;9.05;94.30
76074;BME280;64776;42.636;24.358;2023-09-19T04:19:48;90626.03;;;8.86;94.13
76074;BME280;64776;42.636;24.358;2023-09-19T04:22:49;90619.31;;;8.99;93.62
76074;BME280;64776;42.636;24.358;2023-09-19T04:25:50;90620.94;;;8.97;94.36
76074;BME280;64776;42.636;24.358;2023-09-19T04:28:50;90621.56;;;8.92;94.83
76074;BME280;64776;42.636;24.358;2023-09-19T04:31:51;90621.28;;;8.90;94.74
76074;BME280;64776;42.636;24.358;2023-09-19T04:34:53;90625.56;;;8.87;94.64
76074;BME280;64776;42.636;24.358;2023-09-19T04:37:54;90623.22;;;8.80;95.33
76074;BME280;64776;42.636;24.358;2023-09-19T04:40:57;90624.38;;;8.88;95.32
76074;BME280;64776;42.636;24.358;2023-09-19T04:43:58;90624.94;;;8.92;94.44
76074;BME280;64776;42.636;24.358;2023-09-19T04:46:58;90623.31;;;8.95;94.87
76074;BME280;64776;42.636;24.358;2023-09-19T04:50:01;90612.38;;;8.93;94.71
76074;BME280;64776;42.636;24.358;2023-09-19T04:53:01;90618.56;;;9.08;94.68
76074;BME280;64776;42.636;24.358;2023-09-19T04:56:02;90623.72;;;9.12;95.46
76074;BME280;64776;42.636;24.358;2023-09-19T04:59:03;90622.69;;;9.09;94.45
76074;BME280;64776;42.636;24.358;2023-09-19T05:02:04;90621.78;;;9.12;95.13
76074;BME280;64776;42.636;24.358;2023-09-19T05:05:08;90624.09;;;9.19;95.11
76074;BME280;64776;42.636;24.358;2023-09-19T05:08:09;90621.16;;;9.17;94.85
76074;BME280;64776;42.636;24.358;2023-09-19T05:11:10;90617.91;;;9.22;94.49
76074;BME280;64776;42.636;24.358;2023-09-19T05:14:10;90616.06;;;9.37;94.58
76074;BME280;64776;42.636;24.358;2023-09-19T05:17:11;90619.72;;;9.40;94.06
76074;BME280;64776;42.636;24.358;2023-09-19T05:20:15;90624.28;;;9.48;93.69
76074;BME280;64776;42.636;24.358;2023-09-19T05:23:15;90610.38;;;9.44;93.81
76074;BME280;64776;42.636;24.358;2023-09-19T05:26:16;90613.47;;;9.52;93.75
76074;BME280;64776;42.636;24.358;2023-09-19T05:29:17;90621.09;;;9.59;93.22
76074;BME280;64776;42.636;24.358;2023-09-19T05:32:18;90621.53;;;9.66;93.35
76074;BME280;64776;42.636;24.358;2023-09-19T05:35:20;90622.81;;;9.71;93.19
76074;BME280;64776;42.636;24.358;2023-09-19T05:38:21;90615.31;;;9.60;92.68
76074;BME280;64776;42.636;24.358;2023-09-19T05:41:21;90614.09;;;9.70;93.24
76074;BME280;64776;42.636;24.358;2023-09-19T05:44:22;90610.38;;;9.92;91.76
76074;BME280;64776;42.636;24.358;2023-09-19T05:47:23;90612.19;;;9.85;92.74
76074;BME280;64776;42.636;24.358;2023-09-19T05:50:25;90609.69;;;10.06;93.15
76074;BME280;64776;42.636;24.358;2023-09-19T05:53:27;90603.44;;;10.09;91.94
76074;BME280;64776;42.636;24.358;2023-09-19T05:56:27;90601.38;;;10.13;92.36
76074;BME280;64776;42.636;24.358;2023-09-19T05:59:28;90598.00;;;10.27;91.99
76074;BME280;64776;42.636;24.358;2023-09-19T06:02:29;90600.50;;;10.45;92.35
76074;BME280;64776;42.636;24.358;2023-09-19T06:05:31;90597.00;;;10.68;91.47
76074;BME280;64776;42.636;24.358;2023-09-19T06:08:32;90596.09;;;10.86;90.99
76074;BME280;64776;42.636;24.358;2023-09-19T06:11:33;90594.88;;;10.87;90.47
76074;BME280;64776;42.636;24.358;2023-09-19T06:14:34;90589.75;;;10.83;89.72
76074;BME280;64776;42.636;24.358;2023-09-19T06:17:35;90594.81;;;10.96;90.74
76074;BME280;64776;42.636;24.358;2023-09-19T06:20:37;90594.78;;;11.10;90.30
76074;BME280;64776;42.636;24.358;2023-09-19T06:23:38;90592.25;;;11.21;90.69
76074;BME280;64776;42.636;24.358;2023-09-19T06:26:39;90590.19;;;11.45;90.23
76074;BME280;64776;42.636;24.358;2023-09-19T06:29:40;90575.38;;;11.65;90.46
76074;BME280;64776;42.636;24.358;2023-09-19T06:32:41;90574.00;;;11.89;89.45
76074;BME280;64776;42.636;24.358;2023-09-19T06:35:43;90572.25;;;12.06;89.54
76074;BME280;64776;42.636;24.358;2023-09-19T06:38:44;90577.13;;;12.28;88.37
76074;BME280;64776;42.636;24.358;2023-09-19T06:41:44;90576.56;;;12.44;87.76
76074;BME280;64776;42.636;24.358;2023-09-19T06:44:45;90575.56;;;12.67;87.84
76074;BME280;64776;42.636;24.358;2023-09-19T06:47:46;90572.81;;;12.87;87.99
76074;BME280;64776;42.636;24.358;2023-09-19T06:50:49;90573.69;;;13.04;87.51
76074;BME280;64776;42.636;24.358;2023-09-19T06:53:50;90571.47;;;13.34;87.75
76074;BME280;64776;42.636;24.358;2023-09-19T06:56:50;90571.84;;;13.53;87.48
76074;BME280;64776;42.636;24.358;2023-09-19T06:59:51;90565.66;;;13.78;86.82
76074;BME280;64776;42.636;24.358;2023-09-19T07:02:56;90572.03;;;13.86;85.66
76074;BME280;64776;42.636;24.358;2023-09-19T07:05:58;90568.69;;;14.02;85.54
76074;BME280;64776;42.636;24.358;2023-09-19T07:08:59;90577.53;;;14.19;85.22
76074;BME280;64776;42.636;24.358;2023-09-19T07:12:00;90568.63;;;14.44;83.02
76074;BME280;64776;42.636;24.358;2023-09-19T07:15:01;90570.09;;;14.67;81.92
76074;BME280;64776;42.636;24.358;2023-09-19T07:18:02;90565.53;;;14.96;80.26
76074;BME280;64776;42.636;24.358;2023-09-19T07:21:04;90568.44;;;15.20;79.37
76074;BME280;64776;42.636;24.358;2023-09-19T07:24:05;90569.19;;;15.37;79.81
76074;BME280;64776;42.636;24.358;2023-09-19T07:27:06;90568.44;;;15.59;76.96
76074;BME280;64776;42.636;24.358;2023-09-19T07:30:08;90574.53;;;15.70;78.05
76074;BME280;64776;42.636;24.358;2023-09-19T07:33:08;90558.31;;;15.98;77.92
76074;BME280;64776;42.636;24.358;2023-09-19T07:36:11;90562.44;;;16.15;76.46
76074;BME280;64776;42.636;24.358;2023-09-19T07:39:12;90564.06;;;16.29;76.41
76074;BME280;64776;42.636;24.358;2023-09-19T07:42:14;90553.47;;;16.43;76.29
76074;BME280;64776;42.636;24.358;2023-09-19T07:45:14;90557.50;;;16.71;75.16
76074;BME280;64776;42.636;24.358;2023-09-19T07:48:15;90554.19;;;16.95;74.77
76074;BME280;64776;42.636;24.358;2023-09-19T07:51:17;90555.22;;;17.22;72.43
76074;BME280;64776;42.636;24.358;2023-09-19T07:54:18;90554.63;;;17.34;70.84
76074;BME280;64776;42.636;24.358;2023-09-19T07:57:19;90554.09;;;17.41;71.35
76074;BME280;64776;42.636;24.358;2023-09-19T08:00:20;90560.16;;;17.47;70.97
76074;BME280;64776;42.636;24.358;2023-09-19T08:03:21;90552.16;;;17.66;71.32
76074;BME280;64776;42.636;24.358;2023-09-19T08:06:23;90552.03;;;17.77;69.86
76074;BME280;64776;42.636;24.358;2023-09-19T08:09:24;90558.69;;;17.76;69.79
76074;BME280;64776;42.636;24.358;2023-09-19T08:12:25;90551.31;;;18.01;68.80
76074;BME280;64776;42.636;24.358;2023-09-19T08:15:26;90554.09;;;18.14;68.51
76074;BME280;64776;42.636;24.358;2023-09-19T08:18:27;90543.63;;;18.29;67.13
76074;BME280;64776;42.636;24.358;2023-09-19T08:21:29;90552.66;;;18.13;68.05
76074;BME280;64776;42.636;24.358;2023-09-19T08:24:30;90561.09;;;18.04;67.35
76074;BME280;64776;42.636;24.358;2023-09-19T08:27:31;90555.75;;;18.22;67.67
76074;BME280;64776;42.636;24.358;2023-09-19T08:30:31;90558.59;;;18.54;65.67
76074;BME280;64776;42.636;24.358;2023-09-19T08:33:32;90555.72;;;18.65;64.23
76074;BME280;64776;42.636;24.358;2023-09-19T08:36:35;90551.94;;;18.74;63.83
76074;BME280;64776;42.636;24.358;2023-09-19T08:39:36;90557.28;;;18.79;63.38
76074;BME280;64776;42.636;24.358;2023-09-19T08:42:49;90543.59;;;18.90;64.59
76074;BME280;64776;42.636;24.358;2023-09-19T08:45:51;90542.41;;;18.86;63.33
76074;BME280;64776;42.636;24.358;2023-09-19T08:48:58;90547.34;;;18.87;62.90
76074;BME280;64776;42.636;24.358;2023-09-19T08:52:12;90548.34;;;18.84;64.17
76074;BME280;64776;42.636;24.358;2023-09-19T08:55:18;90555.81;;;18.78;64.10
76074;BME280;64776;42.636;24.358;2023-09-19T08:58:20;90549.94;;;19.11;63.12
76074;BME280;64776;42.636;24.358;2023-09-19T09:01:21;90551.09;;;19.34;61.81
76074;BME280;64776;42.636;24.358;2023-09-19T09:04:23;90539.47;;;19.53;60.85
76074;BME280;64776;42.636;24.358;2023-09-19T09:07:26;90529.31;;;19.72;60.31
76074;BME280;64776;42.636;24.358;2023-09-19T09:10:28;90534.00;;;19.97;59.56
76074;BME280;64776;42.636;24.358;2023-09-19T09:13:29;90533.28;;;20.36;58.01
76074;BME280;64776;42.636;24.358;2023-09-19T09:16:30;90528.44;;;20.68;56.09
76074;BME280;64776;42.636;24.358;2023-09-19T09:19:31;90532.34;;;20.47;57.73
76074;BME280;64776;42.636;24.358;2023-09-19T09:22:33;90535.16;;;20.28;57.27
76074;BME280;64776;42.636;24.358;2023-09-19T09:25:50;90537.66;;;20.52;58.78
76074;BME280;64776;42.636;24.358;2023-09-19T09:28:51;90533.47;;;20.64;57.86
76074;BME280;64776;42.636;24.358;2023-09-19T09:31:51;90538.94;;;20.85;58.03
76074;BME280;64776;42.636;24.358;2023-09-19T09:34:55;90530.06;;;20.84;58.03
76074;BME280;64776;42.636;24.358;2023-09-19T09:38:01;90530.88;;;20.92;57.78
76074;BME280;64776;42.636;24.358;2023-09-19T09:41:01;90524.31;;;20.88;56.73
76074;BME280;64776;42.636;24.358;2023-09-19T09:44:12;90526.72;;;20.91;57.50
76074;BME280;64776;42.636;24.358;2023-09-19T09:47:13;90523.94;;;21.18;57.84
76074;BME280;64776;42.636;24.358;2023-09-19T09:50:14;90517.84;;;21.25;57.24
76074;BME280;64776;42.636;24.358;2023-09-19T09:53:25;90513.22;;;21.33;57.75
76074;BME280;64776;42.636;24.358;2023-09-19T09:56:27;90517.53;;;21.28;57.90
76074;BME280;64776;42.636;24.358;2023-09-19T09:59:47;90520.50;;;21.38;57.31
76074;BME280;64776;42.636;24.358;2023-09-19T10:02:50;90516.66;;;21.33;57.39
76074;BME280;64776;42.636;24.358;2023-09-19T10:05:53;90518.03;;;21.68;56.25
76074;BME280;64776;42.636;24.358;2023-09-19T10:09:00;90517.97;;;21.81;55.76
76074;BME280;64776;42.636;24.358;2023-09-19T10:12:05;90514.03;;;21.82;55.55
76074;BME280;64776;42.636;24.358;2023-09-19T10:15:08;90510.75;;;21.83;55.97
76074;BME280;64776;42.636;24.358;2023-09-19T10:18:11;90507.50;;;21.85;56.39
76074;BME280;64776;42.636;24.358;2023-09-19T10:21:12;90509.38;;;21.90;55.76
76074;BME280;64776;42.636;24.358;2023-09-19T10:24:15;90510.06;;;22.11;56.78
76074;BME280;64776;42.636;24.358;2023-09-19T10:27:17;90504.50;;;21.96;55.94
76074;BME280;64776;42.636;24.358;2023-09-19T10:30:18;90505.59;;;22.21;57.51
76074;BME280;64776;42.636;24.358;2023-09-19T10:33:21;90497.47;;;22.36;56.15
76074;BME280;64776;42.636;24.358;2023-09-19T10:36:24;90500.84;;;22.57;53.81
76074;BME280;64776;42.636;24.358;2023-09-19T10:39:30;90496.06;;;22.79;54.17
76074;BME280;64776;42.636;24.358;2023-09-19T10:42:33;90492.56;;;22.63;54.54
76074;BME280;64776;42.636;24.358;2023-09-19T10:45:38;90493.88;;;22.34;54.67
76074;BME280;64776;42.636;24.358;2023-09-19T10:48:41;90483.31;;;22.58;53.85
76074;BME280;64776;42.636;24.358;2023-09-19T10:51:43;90490.06;;;22.73;52.69
76074;BME280;64776;42.636;24.358;2023-09-19T10:54:48;90487.81;;;23.14;52.20
76074;BME280;64776;42.636;24.358;2023-09-19T10:57:50;90485.47;;;23.18;54.70
76074;BME280;64776;42.636;24.358;2023-09-19T11:00:53;90480.00;;;23.03;52.75
76074;BME280;64776;42.636;24.358;2023-09-19T11:04:21;90475.66;;;23.23;51.42
76074;BME280;64776;42.636;24.358;2023-09-19T11:07:22;90471.31;;;23.20;51.28
76074;BME280;64776;42.636;24.358;2023-09-19T11:10:48;90476.25;;;23.52;52.14
76074;BME280;64776;42.636;24.358;2023-09-19T11:14:16;90468.59;;;23.20;53.11
76074;BME280;64776;42.636;24.358;2023-09-19T11:17:32;90460.59;;;23.22;52.06
76074;BME280;64776;42.636;24.358;2023-09-19T11:20:33;90464.84;;;23.53;53.18
76074;BME280;64776;42.636;24.358;2023-09-19T11:23:34;90464.09;;;23.90;50.06
76074;BME280;64776;42.636;24.358;2023-09-19T11:26:42;90455.16;;;23.97;50.06
76074;BME280;64776;42.636;24.358;2023-09-19T11:29:43;90460.28;;;23.71;50.92
76074;BME280;64776;42.636;24.358;2023-09-19T11:33:17;90450.81;;;23.94;50.40
76074;BME280;64776;42.636;24.358;2023-09-19T11:36:18;90446.75;;;24.25;49.87
76074;BME280;64776;42.636;24.358;2023-09-19T11:39:35;90444.03;;;24.80;49.88
76074;BME280;64776;42.636;24.358;2023-09-19T11:42:44;90447.69;;;24.68;47.96
76074;BME280;64776;42.636;24.358;2023-09-19T11:46:07;90440.72;;;24.35;49.43
76074;BME280;64776;42.636;24.358;2023-09-19T11:49:08;90429.72;;;24.02;51.22
76074;BME280;64776;42.636;24.358;2023-09-19T11:52:09;90430.25;;;24.16;49.80
76074;BME280;64776;42.636;24.358;2023-09-19T11:55:12;90432.66;;;24.52;48.61
76074;BME280;64776;42.636;24.358;2023-09-19T11:58:16;90430.22;;;24.71;48.03
76074;BME280;64776;42.636;24.358;2023-09-19T12:01:22;90425.69;;;24.66;47.49
76074;BME280;64776;42.636;24.358;2023-09-19T12:04:33;90424.19;;;24.33;48.09
76074;BME280;64776;42.636;24.358;2023-09-19T12:07:42;90426.66;;;24.53;50.61
76074;BME280;64776;42.636;24.358;2023-09-19T12:10:47;90411.22;;;24.88;49.28
76074;BME280;64776;42.636;24.358;2023-09-19T12:13:50;90418.00;;;25.12;47.12
76074;BME280;64776;42.636;24.358;2023-09-19T12:16:53;90412.59;;;25.29;46.90
76074;BME280;64776;42.636;24.358;2023-09-19T12:19:56;90413.94;;;24.88;48.10
76074;BME280;64776;42.636;24.358;2023-09-19T12:22:57;90418.78;;;24.25;49.98
76074;BME280;64776;42.636;24.358;2023-09-19T12:25:58;90412.28;;;24.05;50.23
76074;BME280;64776;42.636;24.358;2023-09-19T12:29:00;90409.53;;;24.13;50.83
76074;BME280;64776;42.636;24.358;2023-09-19T12:32:01;90412.06;;;24.18;49.26
76074;BME280;64776;42.636;24.358;2023-09-19T12:35:02;90407.09;;;24.32;49.50
76074;BME280;64776;42.636;24.358;2023-09-19T12:38:03;90416.38;;;24.29;49.38
76074;BME280;64776;42.636;24.358;2023-09-19T12:41:04;90406.91;;;24.30;49.38
76074;BME280;64776;42.636;24.358;2023-09-19T12:44:06;90404.53;;;24.34;48.93
76074;BME280;64776;42.636;24.358;2023-09-19T12:47:11;90393.66;;;24.27;50.10
76074;BME280;64776;42.636;24.358;2023-09-19T12:50:14;90396.00;;;24.38;49.12
76074;BME280;64776;42.636;24.358;2023-09-19T12:53:25;90400.03;;;24.76;47.84
76074;BME280;64776;42.636;24.358;2023-09-19T12:56:25;90393.50;;;24.64;49.98
76074;BME280;64776;42.636;24.358;2023-09-19T12:59:30;90392.78;;;24.64;48.28
76074;BME280;64776;42.636;24.358;2023-09-19T13:02:31;90394.78;;;24.63;48.09
76074;BME280;64776;42.636;24.358;2023-09-19T13:05:46;90390.50;;;24.45;47.94
76074;BME280;64776;42.636;24.358;2023-09-19T13:08:47;90390.56;;;24.70;47.22
76074;BME280;64776;42.636;24.358;2023-09-19T13:11:49;90395.50;;;24.64;47.76
76074;BME280;64776;42.636;24.358;2023-09-19T13:15:07;90381.59;;;25.09;47.52
76074;BME280;64776;42.636;24.358;2023-09-19T13:18:11;90375.75;;;25.13;45.95
76074;BME280;64776;42.636;24.358;2023-09-19T13:21:13;90373.78;;;24.81;46.27
76074;BME280;64776;42.636;24.358;2023-09-19T13:24:21;90369.88;;;24.59;47.04
76074;BME280;64776;42.636;24.358;2023-09-19T13:27:22;90369.13;;;24.59;46.76
76074;BME280;64776;42.636;24.358;2023-09-19T13:30:25;90375.88;;;24.97;46.81
76074;BME280;64776;42.636;24.358;2023-09-19T13:33:26;90371.44;;;25.02;48.14
76074;BME280;64776;42.636;24.358;2023-09-19T13:36:27;90362.59;;;25.43;45.80
76074;BME280;64776;42.636;24.358;2023-09-19T13:39:28;90363.50;;;25.46;45.18
76074;BME280;64776;42.636;24.358;2023-09-19T13:42:29;90361.91;;;25.35;45.19
76074;BME280;64776;42.636;24.358;2023-09-19T13:45:31;90371.91;;;25.40;45.35
76074;BME280;64776;42.636;24.358;2023-09-19T13:48:32;90365.13;;;25.24;45.58
76074;BME280;64776;42.636;24.358;2023-09-19T13:51:33;90359.44;;;25.05;45.70
76074;BME280;64776;42.636;24.358;2023-09-19T13:54:33;90359.25;;;24.78;46.34
76074;BME280;64776;42.636;24.358;2023-09-19T13:57:34;90356.84;;;24.43;46.54
76074;BME280;64776;42.636;24.358;2023-09-19T14:00:36;90372.28;;;24.00;46.90
76074;BME280;64776;42.636;24.358;2023-09-19T14:03:37;90363.66;;;23.72;47.08
76074;BME280;64776;42.636;24.358;2023-09-19T14:06:41;90360.38;;;23.66;48.61
76074;BME280;64776;42.636;24.358;2023-09-19T14:09:42;90368.41;;;23.41;47.93
76074;BME280;64776;42.636;24.358;2023-09-19T14:12:44;90363.31;;;23.45;48.25
76074;BME280;64776;42.636;24.358;2023-09-19T14:15:47;90364.00;;;23.68;48.66
76074;BME280;64776;42.636;24.358;2023-09-19T14:18:48;90371.28;;;23.58;50.74
76074;BME280;64776;42.636;24.358;2023-09-19T14:21:51;90370.72;;;23.67;50.42
76074;BME280;64776;42.636;24.358;2023-09-19T14:24:51;90370.56;;;23.65;50.14
76074;BME280;64776;42.636;24.358;2023-09-19T14:27:52;90362.50;;;24.05;50.19
76074;BME280;64776;42.636;24.358;2023-09-19T14:30:54;90352.75;;;24.27;49.14
76074;BME280;64776;42.636;24.358;2023-09-19T14:33:56;90363.19;;;24.05;50.57
76074;BME280;64776;42.636;24.358;2023-09-19T14:36:57;90364.28;;;24.02;50.17
76074;BME280;64776;42.636;24.358;2023-09-19T14:39:57;90366.50;;;23.89;49.07
76074;BME280;64776;42.636;24.358;2023-09-19T14:42:58;90366.16;;;23.77;51.00
76074;BME280;64776;42.636;24.358;2023-09-19T14:46:03;90354.25;;;23.20;51.67
76074;BME280;64776;42.636;24.358;2023-09-19T14:49:04;90361.84;;;23.21;51.85
76074;BME280;64776;42.636;24.358;2023-09-19T14:52:07;90361.50;;;23.17;51.92
76074;BME280;64776;42.636;24.358;2023-09-19T14:55:08;90364.03;;;23.08;52.10
76074;BME280;64776;42.636;24.358;2023-09-19T14:58:09;90370.56;;;23.05;52.65
76074;BME280;64776;42.636;24.358;2023-09-19T15:01:12;90369.81;;;23.04;53.39
76074;BME280;64776;42.636;24.358;2023-09-19T15:04:13;90383.25;;;22.87;53.12
76074;BME280;64776;42.636;24.358;2023-09-19T15:07:14;90375.06;;;22.80;53.82
76074;BME280;64776;42.636;24.358;2023-09-19T15:10:15;90373.34;;;22.46;53.84
76074;BME280;64776;42.636;24.358;2023-09-19T15:13:16;90375.66;;;22.27;53.32
76074;BME280;64776;42.636;24.358;2023-09-19T15:16:18;90378.75;;;21.88;53.76
76074;BME280;64776;42.636;24.358;2023-09-19T15:19:19;90377.28;;;21.87;54.02
76074;BME280;64776;42.636;24.358;2023-09-19T15:22:20;90383.63;;;21.82;53.87
76074;BME280;64776;42.636;24.358;2023-09-19T15:25:20;90378.44;;;21.71;54.61
76074;BME280;64776;42.636;24.358;2023-09-19T15:28:21;90379.63;;;21.55;53.99
76074;BME280;64776;42.636;24.358;2023-09-19T15:31:24;90379.25;;;21.51;54.28
76074;BME280;64776;42.636;24.358;2023-09-19T15:34:24;90374.97;;;21.35;54.34
76074;BME280;64776;42.636;24.358;2023-09-19T15:37:25;90381.06;;;21.28;53.89
76074;BME280;64776;42.636;24.358;2023-09-19T15:40:26;90371.19;;;21.10;54.69
76074;BME280;64776;42.636;24.358;2023-09-19T15:43:27;90377.25;;;21.02;54.76
76074;BME280;64776;42.636;24.358;2023-09-19T15:46:30;90378.31;;;20.99;54.79
76074;BME280;64776;42.636;24.358;2023-09-19T15:49:31;90389.69;;;20.77;54.71
76074;BME280;64776;42.636;24.358;2023-09-19T15:52:32;90388.03;;;20.74;54.74
76074;BME280;64776;42.636;24.358;2023-09-19T15:55:38;90391.59;;;20.69;55.46
76074;BME280;64776;42.636;24.358;2023-09-19T15:58:40;90388.41;;;20.58;54.96